createdAt,value
2022-08-05T00:00:02.126Z,25.5
2022-08-05T00:20:03.227Z,25.1
2022-08-05T00:40:02.602Z,24.8
2022-08-05T01:00:02.210Z,24.5
2022-08-05T01:20:03.500Z,24.1
2022-08-05T01:40:03.132Z,23.9
2022-08-05T02:00:02.505Z,23.8
2022-08-05T02:20:07.814Z,23.5
2022-08-05T02:40:01.953Z,23.2
2022-08-05T03:00:02.092Z,22.8
2022-08-05T03:20:02.307Z,22.5
2022-08-05T03:40:03.901Z,22.4
2022-08-05T04:00:02.463Z,22.2
2022-08-05T04:20:02.977Z,22.1
2022-08-05T04:40:02.012Z,22.5
2022-08-05T05:00:02.726Z,22.9
2022-08-05T05:20:03.014Z,23.7
2022-08-05T05:40:07.460Z,24.4
2022-08-05T06:00:02.876Z,25.3
2022-08-05T06:20:02.415Z,25.5
2022-08-05T06:40:07.570Z,25.5
2022-08-05T07:00:02.846Z,26.7
2022-08-05T07:40:03.888Z,29.5
2022-08-05T08:00:02.388Z,30.1
2022-08-05T08:20:23.156Z,30.3
2022-08-05T08:40:03.625Z,29.8
2022-08-05T09:00:04.338Z,29.2
2022-08-05T09:20:08.329Z,28.6
2022-08-05T09:40:02.934Z,28
2022-08-05T10:00:07.848Z,27.5
2022-08-05T10:20:09.874Z,27.4
2022-08-05T10:40:17.772Z,26.4
2022-08-05T11:00:08.262Z,25.7
2022-08-05T11:20:09.839Z,25.4
2022-08-05T11:40:04.558Z,25.2
2022-08-05T12:00:02.175Z,26
2022-08-05T12:20:17.330Z,26.5
2022-08-05T12:40:10.585Z,26.6
2022-08-05T13:00:09.101Z,28
2022-08-05T13:20:02.110Z,28
2022-08-05T13:40:13.322Z,28.2
2022-08-05T14:00:02.833Z,28.4
2022-08-05T14:20:04.450Z,28.6
2022-08-05T14:40:02.885Z,28.5
2022-08-05T15:00:02.597Z,28.2
2022-08-05T15:20:02.966Z,27.6
2022-08-05T15:40:42.875Z,27.4
2022-08-05T16:00:02.871Z,27
2022-08-05T16:20:02.878Z,26.5
2022-08-05T16:40:05.481Z,26.1
2022-08-05T17:00:07.447Z,25.5
2022-08-05T17:20:03.032Z,25.2
2022-08-05T17:40:02.386Z,24.9
2022-08-05T18:00:03.924Z,24.1
2022-08-05T18:20:02.228Z,22.6
2022-08-05T18:40:31.956Z,21.9
2022-08-05T19:00:04.874Z,21.4
2022-08-05T19:20:07.205Z,21.2
2022-08-05T19:40:08.104Z,20.7
2022-08-05T20:00:07.764Z,20.2
2022-08-05T20:20:06.435Z,19.9
2022-08-05T20:40:02.501Z,19.7
2022-08-05T21:00:10.905Z,19.5
2022-08-05T21:20:10.119Z,19.2
2022-08-05T21:40:03.213Z,19.2
2022-08-05T22:00:05.643Z,19
2022-08-05T22:20:11.356Z,18.7
2022-08-05T22:40:07.575Z,18.4
2022-08-05T23:00:07.782Z,18.1
2022-08-05T23:20:02.841Z,18.1
2022-08-05T23:40:07.579Z,17.8
